sensor_id;sensor_type;location;lat;lon;timestamp;P1;durP1;ratioP1;P2;durP2;ratioP2
31734;SDS011;18313;48.518;9.124;2023-06-22T00:01:45;9.90;;;6.15;;
31734;SDS011;18313;48.518;9.124;2023-06-22T00:04:13;10.52;;;6.28;;
31734;SDS011;18313;48.518;9.124;2023-06-22T00:06:40;8.77;;;6.05;;
31734;SDS011;18313;48.518;9.124;2023-06-22T00:09:07;9.35;;;6.30;;
31734;SDS011;18313;48.518;9.124;2023-06-22T00:11:34;12.93;;;6.45;;
31734;SDS011;18313;48.518;9.124;2023-06-22T00:14:01;8.73;;;5.95;;
31734;SDS011;18313;48.518;9.124;2023-06-22T00:16:29;9.90;;;5.90;;
31734;SDS011;18313;48.518;9.124;2023-06-22T00:18:56;10.68;;;6.07;;
31734;SDS011;18313;48.518;9.124;2023-06-22T00:21:24;10.77;;;6.05;;
31734;SDS011;18313;48.518;9.124;2023-06-22T00:23:51;10.15;;;6.50;;
31734;SDS011;18313;48.518;9.124;2023-06-22T00:26:19;11.50;;;6.90;;
31734;SDS011;18313;48.518;9.124;2023-06-22T00:28:47;12.32;;;7.20;;
31734;SDS011;18313;48.518;9.124;2023-06-22T00:31:14;8.52;;;6.38;;
31734;SDS011;18313;48.518;9.124;2023-06-22T00:33:41;10.27;;;6.70;;
31734;SDS011;18313;48.518;9.124;2023-06-22T00:36:08;11.73;;;6.55;;
31734;SDS011;18313;48.518;9.124;2023-06-22T00:38:39;14.98;;;7.32;;
31734;SDS011;18313;48.518;9.124;2023-06-22T00:41:06;11.70;;;6.85;;
31734;SDS011;18313;48.518;9.124;2023-06-22T00:43:33;12.35;;;7.68;;
31734;SDS011;18313;48.518;9.124;2023-06-22T00:46:00;11.50;;;7.25;;
31734;SDS011;18313;48.518;9.124;2023-06-22T00:48:28;10.02;;;6.80;;
31734;SDS011;18313;48.518;9.124;2023-06-22T00:50:55;11.38;;;6.20;;
31734;SDS011;18313;48.518;9.124;2023-06-22T00:53:22;15.23;;;7.65;;
31734;SDS011;18313;48.518;9.124;2023-06-22T00:55:49;13.63;;;7.43;;
31734;SDS011;18313;48.518;9.124;2023-06-22T00:58:18;11.73;;;6.75;;
31734;SDS011;18313;48.518;9.124;2023-06-22T01:00:48;9.63;;;6.30;;
31734;SDS011;18313;48.518;9.124;2023-06-22T01:03:15;9.77;;;6.15;;
31734;SDS011;18313;48.518;9.124;2023-06-22T01:05:43;14.23;;;7.65;;
31734;SDS011;18313;48.518;9.124;2023-06-22T01:10:44;13.75;;;7.60;;
31734;SDS011;18313;48.518;9.124;2023-06-22T01:16:27;9.20;;;5.97;;
31734;SDS011;18313;48.518;9.124;2023-06-22T01:18:57;13.77;;;7.63;;
31734;SDS011;18313;48.518;9.124;2023-06-22T01:21:30;12.23;;;7.75;;
31734;SDS011;18313;48.518;9.124;2023-06-22T01:29:23;14.48;;;7.75;;
31734;SDS011;18313;48.518;9.124;2023-06-22T01:31:52;15.57;;;8.73;;
31734;SDS011;18313;48.518;9.124;2023-06-22T01:34:22;12.48;;;7.40;;
31734;SDS011;18313;48.518;9.124;2023-06-22T01:36:50;11.65;;;7.88;;
31734;SDS011;18313;48.518;9.124;2023-06-22T01:39:19;12.65;;;7.75;;
31734;SDS011;18313;48.518;9.124;2023-06-22T01:41:47;12.27;;;7.10;;
31734;SDS011;18313;48.518;9.124;2023-06-22T01:44:15;16.52;;;8.00;;
31734;SDS011;18313;48.518;9.124;2023-06-22T01:46:43;11.35;;;7.15;;
31734;SDS011;18313;48.518;9.124;2023-06-22T01:49:10;20.80;;;8.30;;
31734;SDS011;18313;48.518;9.124;2023-06-22T01:51:37;13.00;;;7.82;;
31734;SDS011;18313;48.518;9.124;2023-06-22T01:54:05;12.35;;;7.28;;
31734;SDS011;18313;48.518;9.124;2023-06-22T01:56:34;11.52;;;7.72;;
31734;SDS011;18313;48.518;9.124;2023-06-22T01:59:17;11.20;;;6.80;;
31734;SDS011;18313;48.518;9.124;2023-06-22T02:02:01;13.27;;;7.47;;
31734;SDS011;18313;48.518;9.124;2023-06-22T02:05:18;14.32;;;7.35;;
31734;SDS011;18313;48.518;9.124;2023-06-22T02:07:28;15.15;;;7.40;;
31734;SDS011;18313;48.518;9.124;2023-06-22T02:09:59;11.80;;;7.00;;
31734;SDS011;18313;48.518;9.124;2023-06-22T02:12:28;11.07;;;6.00;;
31734;SDS011;18313;48.518;9.124;2023-06-22T02:14:57;12.05;;;7.82;;
31734;SDS011;18313;48.518;9.124;2023-06-22T02:17:27;13.13;;;7.82;;
31734;SDS011;18313;48.518;9.124;2023-06-22T02:19:54;12.73;;;7.95;;
31734;SDS011;18313;48.518;9.124;2023-06-22T02:22:21;11.25;;;7.60;;
31734;SDS011;18313;48.518;9.124;2023-06-22T02:24:48;12.20;;;7.05;;
31734;SDS011;18313;48.518;9.124;2023-06-22T02:27:15;12.75;;;8.00;;
31734;SDS011;18313;48.518;9.124;2023-06-22T02:29:42;12.27;;;7.80;;
31734;SDS011;18313;48.518;9.124;2023-06-22T02:32:09;10.05;;;6.60;;
31734;SDS011;18313;48.518;9.124;2023-06-22T02:34:36;10.80;;;7.75;;
31734;SDS011;18313;48.518;9.124;2023-06-22T02:37:03;13.45;;;8.15;;
31734;SDS011;18313;48.518;9.124;2023-06-22T02:39:31;13.93;;;8.00;;
31734;SDS011;18313;48.518;9.124;2023-06-22T02:41:58;15.55;;;8.10;;
31734;SDS011;18313;48.518;9.124;2023-06-22T02:44:25;13.85;;;8.77;;
31734;SDS011;18313;48.518;9.124;2023-06-22T02:46:52;12.68;;;7.75;;
31734;SDS011;18313;48.518;9.124;2023-06-22T02:49:20;16.08;;;8.85;;
31734;SDS011;18313;48.518;9.124;2023-06-22T02:51:48;14.45;;;9.00;;
31734;SDS011;18313;48.518;9.124;2023-06-22T02:54:15;16.63;;;9.70;;
31734;SDS011;18313;48.518;9.124;2023-06-22T02:56:43;15.98;;;9.85;;
31734;SDS011;18313;48.518;9.124;2023-06-22T02:59:12;14.68;;;8.98;;
31734;SDS011;18313;48.518;9.124;2023-06-22T03:01:39;12.35;;;8.07;;
31734;SDS011;18313;48.518;9.124;2023-06-22T03:04:07;14.82;;;9.35;;
31734;SDS011;18313;48.518;9.124;2023-06-22T03:06:35;16.10;;;9.50;;
31734;SDS011;18313;48.518;9.124;2023-06-22T03:09:03;15.35;;;9.55;;
31734;SDS011;18313;48.518;9.124;2023-06-22T03:11:32;15.20;;;9.68;;
31734;SDS011;18313;48.518;9.124;2023-06-22T03:14:02;14.43;;;9.45;;
31734;SDS011;18313;48.518;9.124;2023-06-22T03:16:29;15.80;;;10.63;;
31734;SDS011;18313;48.518;9.124;2023-06-22T03:18:56;19.63;;;10.15;;
31734;SDS011;18313;48.518;9.124;2023-06-22T03:21:23;21.67;;;10.55;;
31734;SDS011;18313;48.518;9.124;2023-06-22T03:23:52;15.48;;;10.45;;
31734;SDS011;18313;48.518;9.124;2023-06-22T03:26:19;14.70;;;10.02;;
31734;SDS011;18313;48.518;9.124;2023-06-22T03:28:46;16.98;;;10.57;;
31734;SDS011;18313;48.518;9.124;2023-06-22T03:31:13;16.38;;;10.00;;
31734;SDS011;18313;48.518;9.124;2023-06-22T03:33:40;18.02;;;10.27;;
31734;SDS011;18313;48.518;9.124;2023-06-22T03:36:08;16.42;;;9.73;;
31734;SDS011;18313;48.518;9.124;2023-06-22T03:38:35;14.23;;;10.00;;
31734;SDS011;18313;48.518;9.124;2023-06-22T03:41:02;15.75;;;9.80;;
31734;SDS011;18313;48.518;9.124;2023-06-22T03:43:29;14.75;;;9.93;;
31734;SDS011;18313;48.518;9.124;2023-06-22T03:45:56;15.27;;;10.15;;
31734;SDS011;18313;48.518;9.124;2023-06-22T03:48:24;15.35;;;10.00;;
31734;SDS011;18313;48.518;9.124;2023-06-22T03:50:51;15.93;;;9.77;;
31734;SDS011;18313;48.518;9.124;2023-06-22T03:53:18;14.55;;;10.13;;
31734;SDS011;18313;48.518;9.124;2023-06-22T03:55:51;14.88;;;10.10;;
31734;SDS011;18313;48.518;9.124;2023-06-22T03:58:19;16.10;;;11.55;;
31734;SDS011;18313;48.518;9.124;2023-06-22T04:00:47;17.75;;;11.48;;
31734;SDS011;18313;48.518;9.124;2023-06-22T04:03:15;14.80;;;10.07;;
31734;SDS011;18313;48.518;9.124;2023-06-22T04:05:46;13.75;;;10.57;;
31734;SDS011;18313;48.518;9.124;2023-06-22T04:08:14;17.13;;;10.55;;
31734;SDS011;18313;48.518;9.124;2023-06-22T04:10:42;14.85;;;10.07;;
31734;SDS011;18313;48.518;9.124;2023-06-22T04:13:09;15.68;;;10.02;;
31734;SDS011;18313;48.518;9.124;2023-06-22T04:15:36;22.60;;;11.25;;
31734;SDS011;18313;48.518;9.124;2023-06-22T04:18:03;16.73;;;10.27;;
31734;SDS011;18313;48.518;9.124;2023-06-22T04:20:31;14.68;;;9.60;;
31734;SDS011;18313;48.518;9.124;2023-06-22T04:22:59;16.15;;;11.02;;
31734;SDS011;18313;48.518;9.124;2023-06-22T04:25:26;15.05;;;10.45;;
31734;SDS011;18313;48.518;9.124;2023-06-22T04:27:53;17.90;;;10.68;;
31734;SDS011;18313;48.518;9.124;2023-06-22T04:30:20;16.23;;;10.30;;
31734;SDS011;18313;48.518;9.124;2023-06-22T04:32:47;20.70;;;10.27;;
31734;SDS011;18313;48.518;9.124;2023-06-22T04:35:24;14.23;;;10.15;;
31734;SDS011;18313;48.518;9.124;2023-06-22T04:37:52;16.13;;;9.73;;
31734;SDS011;18313;48.518;9.124;2023-06-22T04:40:22;13.80;;;9.27;;
31734;SDS011;18313;48.518;9.124;2023-06-22T04:42:49;17.70;;;9.95;;
31734;SDS011;18313;48.518;9.124;2023-06-22T04:45:20;15.60;;;9.70;;
31734;SDS011;18313;48.518;9.124;2023-06-22T04:47:48;16.13;;;10.23;;
31734;SDS011;18313;48.518;9.124;2023-06-22T04:50:18;14.73;;;9.95;;
31734;SDS011;18313;48.518;9.124;2023-06-22T04:52:47;16.27;;;9.55;;
31734;SDS011;18313;48.518;9.124;2023-06-22T04:55:14;16.75;;;9.90;;
31734;SDS011;18313;48.518;9.124;2023-06-22T04:57:46;15.25;;;9.82;;
31734;SDS011;18313;48.518;9.124;2023-06-22T05:00:16;16.52;;;9.48;;
31734;SDS011;18313;48.518;9.124;2023-06-22T05:02:46;15.40;;;9.52;;
31734;SDS011;18313;48.518;9.124;2023-06-22T05:05:15;15.68;;;9.43;;
31734;SDS011;18313;48.518;9.124;2023-06-22T05:07:42;16.55;;;9.38;;
31734;SDS011;18313;48.518;9.124;2023-06-22T05:10:11;15.68;;;9.38;;
31734;SDS011;18313;48.518;9.124;2023-06-22T05:12:42;16.45;;;9.45;;
31734;SDS011;18313;48.518;9.124;2023-06-22T05:15:09;15.00;;;8.57;;
31734;SDS011;18313;48.518;9.124;2023-06-22T05:17:37;13.98;;;8.35;;
31734;SDS011;18313;48.518;9.124;2023-06-22T05:20:10;14.57;;;8.52;;
31734;SDS011;18313;48.518;9.124;2023-06-22T05:22:38;16.88;;;8.13;;
31734;SDS011;18313;48.518;9.124;2023-06-22T05:25:08;11.50;;;8.07;;
31734;SDS011;18313;48.518;9.124;2023-06-22T05:27:36;12.57;;;8.00;;
31734;SDS011;18313;48.518;9.124;2023-06-22T05:30:07;14.43;;;7.78;;
31734;SDS011;18313;48.518;9.124;2023-06-22T05:32:35;11.18;;;7.78;;
31734;SDS011;18313;48.518;9.124;2023-06-22T05:35:03;13.55;;;7.55;;
31734;SDS011;18313;48.518;9.124;2023-06-22T05:37:31;11.30;;;7.13;;
31734;SDS011;18313;48.518;9.124;2023-06-22T05:39:58;14.07;;;7.28;;
31734;SDS011;18313;48.518;9.124;2023-06-22T05:42:25;13.13;;;6.95;;
31734;SDS011;18313;48.518;9.124;2023-06-22T05:44:52;10.70;;;6.93;;
31734;SDS011;18313;48.518;9.124;2023-06-22T05:47:20;11.38;;;6.63;;
31734;SDS011;18313;48.518;9.124;2023-06-22T05:49:47;12.05;;;7.05;;
31734;SDS011;18313;48.518;9.124;2023-06-22T05:52:14;14.50;;;6.80;;
31734;SDS011;18313;48.518;9.124;2023-06-22T05:54:41;14.38;;;6.30;;
31734;SDS011;18313;48.518;9.124;2023-06-22T05:57:09;8.60;;;5.47;;
31734;SDS011;18313;48.518;9.124;2023-06-22T05:59:36;11.32;;;6.38;;
31734;SDS011;18313;48.518;9.124;2023-06-22T06:02:03;9.27;;;5.80;;
31734;SDS011;18313;48.518;9.124;2023-06-22T06:04:31;12.25;;;5.57;;
31734;SDS011;18313;48.518;9.124;2023-06-22T06:06:58;12.48;;;5.60;;
31734;SDS011;18313;48.518;9.124;2023-06-22T06:09:28;11.05;;;5.68;;
31734;SDS011;18313;48.518;9.124;2023-06-22T06:11:55;13.27;;;6.03;;
31734;SDS011;18313;48.518;9.124;2023-06-22T06:14:22;9.00;;;5.47;;
31734;SDS011;18313;48.518;9.124;2023-06-22T06:16:49;13.15;;;5.45;;
31734;SDS011;18313;48.518;9.124;2023-06-22T06:19:16;12.55;;;5.75;;
31734;SDS011;18313;48.518;9.124;2023-06-22T06:21:43;10.27;;;5.32;;
31734;SDS011;18313;48.518;9.124;2023-06-22T06:24:11;10.30;;;5.57;;
31734;SDS011;18313;48.518;9.124;2023-06-22T06:26:38;10.70;;;5.05;;
31734;SDS011;18313;48.518;9.124;2023-06-22T06:29:08;10.45;;;4.63;;
31734;SDS011;18313;48.518;9.124;2023-06-22T06:31:35;7.80;;;4.82;;
31734;SDS011;18313;48.518;9.124;2023-06-22T06:34:03;9.40;;;5.05;;
31734;SDS011;18313;48.518;9.124;2023-06-22T06:36:30;11.88;;;5.38;;
31734;SDS011;18313;48.518;9.124;2023-06-22T06:38:57;10.40;;;4.68;;
31734;SDS011;18313;48.518;9.124;2023-06-22T06:41:25;10.32;;;5.30;;
31734;SDS011;18313;48.518;9.124;2023-06-22T06:43:52;12.25;;;5.28;;
31734;SDS011;18313;48.518;9.124;2023-06-22T06:46:19;8.60;;;4.50;;
31734;SDS011;18313;48.518;9.124;2023-06-22T06:48:46;12.05;;;5.18;;
31734;SDS011;18313;48.518;9.124;2023-06-22T06:51:14;10.88;;;5.03;;
31734;SDS011;18313;48.518;9.124;2023-06-22T06:53:41;9.05;;;4.68;;
31734;SDS011;18313;48.518;9.124;2023-06-22T06:56:08;12.40;;;5.60;;
31734;SDS011;18313;48.518;9.124;2023-06-22T06:58:40;10.05;;;4.75;;
31734;SDS011;18313;48.518;9.124;2023-06-22T07:01:08;9.93;;;4.55;;
31734;SDS011;18313;48.518;9.124;2023-06-22T07:03:36;10.55;;;5.20;;
31734;SDS011;18313;48.518;9.124;2023-06-22T07:06:03;10.60;;;4.38;;
31734;SDS011;18313;48.518;9.124;2023-06-22T07:08:30;9.40;;;4.60;;
31734;SDS011;18313;48.518;9.124;2023-06-22T07:10:58;9.90;;;4.07;;
31734;SDS011;18313;48.518;9.124;2023-06-22T07:13:25;7.60;;;3.85;;
31734;SDS011;18313;48.518;9.124;2023-06-22T07:15:52;9.85;;;4.18;;
31734;SDS011;18313;48.518;9.124;2023-06-22T07:18:19;14.13;;;4.85;;
31734;SDS011;18313;48.518;9.124;2023-06-22T07:20:46;9.43;;;5.05;;
31734;SDS011;18313;48.518;9.124;2023-06-22T07:23:14;10.90;;;5.25;;
31734;SDS011;18313;48.518;9.124;2023-06-22T07:25:41;9.63;;;4.78;;
31734;SDS011;18313;48.518;9.124;2023-06-22T07:28:08;9.80;;;4.65;;
31734;SDS011;18313;48.518;9.124;2023-06-22T07:30:35;9.95;;;4.38;;
31734;SDS011;18313;48.518;9.124;2023-06-22T07:33:02;10.30;;;4.90;;
31734;SDS011;18313;48.518;9.124;2023-06-22T07:35:31;8.18;;;4.18;;
31734;SDS011;18313;48.518;9.124;2023-06-22T07:37:59;9.82;;;4.30;;
31734;SDS011;18313;48.518;9.124;2023-06-22T07:40:31;7.90;;;4.28;;
31734;SDS011;18313;48.518;9.124;2023-06-22T07:42:58;12.70;;;5.07;;
31734;SDS011;18313;48.518;9.124;2023-06-22T07:45:25;9.02;;;4.88;;
31734;SDS011;18313;48.518;9.124;2023-06-22T07:47:53;10.95;;;4.43;;
31734;SDS011;18313;48.518;9.124;2023-06-22T07:50:21;11.07;;;4.32;;
31734;SDS011;18313;48.518;9.124;2023-06-22T07:52:48;10.50;;;4.85;;
31734;SDS011;18313;48.518;9.124;2023-06-22T07:55:15;11.25;;;4.80;;
31734;SDS011;18313;48.518;9.124;2023-06-22T07:57:47;8.43;;;4.72;;
31734;SDS011;18313;48.518;9.124;2023-06-22T08:00:15;8.32;;;4.65;;
31734;SDS011;18313;48.518;9.124;2023-06-22T08:02:46;11.93;;;5.00;;
31734;SDS011;18313;48.518;9.124;2023-06-22T08:05:14;9.98;;;4.75;;
31734;SDS011;18313;48.518;9.124;2023-06-22T08:07:59;8.52;;;4.60;;
31734;SDS011;18313;48.518;9.124;2023-06-22T08:10:26;10.35;;;4.50;;
31734;SDS011;18313;48.518;9.124;2023-06-22T08:12:54;7.80;;;4.38;;
31734;SDS011;18313;48.518;9.124;2023-06-22T08:15:21;11.25;;;5.30;;
31734;SDS011;18313;48.518;9.124;2023-06-22T08:17:48;8.80;;;4.22;;
31734;SDS011;18313;48.518;9.124;2023-06-22T08:20:16;12.20;;;4.78;;
31734;SDS011;18313;48.518;9.124;2023-06-22T08:22:43;9.85;;;4.72;;
31734;SDS011;18313;48.518;9.124;2023-06-22T08:25:10;9.20;;;4.38;;
31734;SDS011;18313;48.518;9.124;2023-06-22T08:27:38;12.00;;;4.90;;
31734;SDS011;18313;48.518;9.124;2023-06-22T08:30:07;9.40;;;4.40;;
31734;SDS011;18313;48.518;9.124;2023-06-22T08:32:37;12.98;;;4.40;;
31734;SDS011;18313;48.518;9.124;2023-06-22T08:35:04;15.77;;;4.75;;
31734;SDS011;18313;48.518;9.124;2023-06-22T08:37:34;12.05;;;4.38;;
31734;SDS011;18313;48.518;9.124;2023-06-22T08:40:03;11.63;;;4.60;;
31734;SDS011;18313;48.518;9.124;2023-06-22T08:42:32;12.15;;;5.70;;
31734;SDS011;18313;48.518;9.124;2023-06-22T08:44:59;13.15;;;4.75;;
31734;SDS011;18313;48.518;9.124;2023-06-22T08:47:29;9.32;;;4.82;;
31734;SDS011;18313;48.518;9.124;2023-06-22T08:49:56;13.38;;;5.53;;
31734;SDS011;18313;48.518;9.124;2023-06-22T08:52:23;11.40;;;4.78;;
31734;SDS011;18313;48.518;9.124;2023-06-22T08:54:51;9.73;;;5.10;;
31734;SDS011;18313;48.518;9.124;2023-06-22T08:57:18;8.77;;;4.78;;
31734;SDS011;18313;48.518;9.124;2023-06-22T08:59:45;12.20;;;4.95;;
31734;SDS011;18313;48.518;9.124;2023-06-22T09:02:12;9.93;;;4.70;;
31734;SDS011;18313;48.518;9.124;2023-06-22T09:04:39;11.13;;;4.80;;
31734;SDS011;18313;48.518;9.124;2023-06-22T09:07:08;11.85;;;4.55;;
31734;SDS011;18313;48.518;9.124;2023-06-22T09:09:35;14.02;;;5.35;;
31734;SDS011;18313;48.518;9.124;2023-06-22T09:12:02;10.15;;;4.55;;
31734;SDS011;18313;48.518;9.124;2023-06-22T09:14:30;11.50;;;4.70;;
31734;SDS011;18313;48.518;9.124;2023-06-22T09:16:57;10.70;;;4.90;;
31734;SDS011;18313;48.518;9.124;2023-06-22T09:19:24;10.50;;;4.70;;
31734;SDS011;18313;48.518;9.124;2023-06-22T09:21:51;9.85;;;4.80;;
31734;SDS011;18313;48.518;9.124;2023-06-22T09:24:18;8.70;;;4.80;;
31734;SDS011;18313;48.518;9.124;2023-06-22T09:26:45;11.88;;;5.13;;
31734;SDS011;18313;48.518;9.124;2023-06-22T09:29:12;9.77;;;4.75;;
31734;SDS011;18313;48.518;9.124;2023-06-22T09:31:39;10.95;;;4.90;;
31734;SDS011;18313;48.518;9.124;2023-06-22T09:34:07;9.60;;;4.75;;
31734;SDS011;18313;48.518;9.124;2023-06-22T09:36:34;12.68;;;4.78;;
31734;SDS011;18313;48.518;9.124;2023-06-22T09:39:01;9.85;;;4.78;;
31734;SDS011;18313;48.518;9.124;2023-06-22T09:41:32;8.15;;;4.50;;
31734;SDS011;18313;48.518;9.124;2023-06-22T09:43:59;9.88;;;5.07;;
31734;SDS011;18313;48.518;9.124;2023-06-22T09:46:26;13.40;;;5.07;;
31734;SDS011;18313;48.518;9.124;2023-06-22T09:48:53;8.38;;;4.43;;
31734;SDS011;18313;48.518;9.124;2023-06-22T09:51:20;10.90;;;5.43;;
31734;SDS011;18313;48.518;9.124;2023-06-22T09:53:48;10.30;;;4.85;;
31734;SDS011;18313;48.518;9.124;2023-06-22T09:56:15;10.23;;;5.03;;
31734;SDS011;18313;48.518;9.124;2023-06-22T09:58:43;9.15;;;4.47;;
31734;SDS011;18313;48.518;9.124;2023-06-22T10:01:11;11.68;;;5.60;;
31734;SDS011;18313;48.518;9.124;2023-06-22T10:03:41;12.63;;;4.90;;
31734;SDS011;18313;48.518;9.124;2023-06-22T10:06:09;10.63;;;4.65;;
31734;SDS011;18313;48.518;9.124;2023-06-22T10:08:36;11.88;;;4.13;;
31734;SDS011;18313;48.518;9.124;2023-06-22T10:11:03;8.65;;;4.60;;
31734;SDS011;18313;48.518;9.124;2023-06-22T10:13:31;9.18;;;4.40;;
31734;SDS011;18313;48.518;9.124;2023-06-22T10:15:58;10.65;;;4.57;;
31734;SDS011;18313;48.518;9.124;2023-06-22T10:18:25;10.02;;;4.57;;
31734;SDS011;18313;48.518;9.124;2023-06-22T10:20:52;12.77;;;5.10;;
31734;SDS011;18313;48.518;9.124;2023-06-22T10:23:19;10.27;;;5.03;;
31734;SDS011;18313;48.518;9.124;2023-06-22T10:25:47;11.15;;;5.20;;
31734;SDS011;18313;48.518;9.124;2023-06-22T10:28:14;15.30;;;4.78;;
31734;SDS011;18313;48.518;9.124;2023-06-22T10:30:41;10.77;;;4.38;;
31734;SDS011;18313;48.518;9.124;2023-06-22T10:33:09;7.88;;;4.22;;
31734;SDS011;18313;48.518;9.124;2023-06-22T10:35:36;9.68;;;4.47;;
31734;SDS011;18313;48.518;9.124;2023-06-22T10:38:04;13.75;;;5.05;;
31734;SDS011;18313;48.518;9.124;2023-06-22T10:40:32;8.98;;;4.65;;
31734;SDS011;18313;48.518;9.124;2023-06-22T10:42:59;10.23;;;4.85;;
31734;SDS011;18313;48.518;9.124;2023-06-22T10:45:26;10.38;;;4.53;;
31734;SDS011;18313;48.518;9.124;2023-06-22T10:47:56;11.55;;;4.40;;
31734;SDS011;18313;48.518;9.124;2023-06-22T10:50:24;10.07;;;4.60;;
31734;SDS011;18313;48.518;9.124;2023-06-22T10:52:52;9.13;;;4.22;;
31734;SDS011;18313;48.518;9.124;2023-06-22T10:55:19;9.60;;;4.63;;
31734;SDS011;18313;48.518;9.124;2023-06-22T10:57:46;9.57;;;4.53;;
31734;SDS011;18313;48.518;9.124;2023-06-22T11:00:14;10.07;;;4.57;;
31734;SDS011;18313;48.518;9.124;2023-06-22T11:02:42;11.13;;;4.65;;
31734;SDS011;18313;48.518;9.124;2023-06-22T11:05:10;12.75;;;4.53;;
31734;SDS011;18313;48.518;9.124;2023-06-22T11:07:40;13.73;;;4.63;;
31734;SDS011;18313;48.518;9.124;2023-06-22T11:10:09;11.20;;;4.55;;
31734;SDS011;18313;48.518;9.124;2023-06-22T11:12:36;12.02;;;4.20;;
31734;SDS011;18313;48.518;9.124;2023-06-22T11:15:04;10.50;;;4.53;;
31734;SDS011;18313;48.518;9.124;2023-06-22T11:17:31;13.15;;;4.88;;
31734;SDS011;18313;48.518;9.124;2023-06-22T11:19:58;11.05;;;4.60;;
31734;SDS011;18313;48.518;9.124;2023-06-22T11:22:26;9.45;;;4.72;;
31734;SDS011;18313;48.518;9.124;2023-06-22T11:24:54;8.82;;;4.45;;
31734;SDS011;18313;48.518;9.124;2023-06-22T11:27:20;9.82;;;4.40;;
31734;SDS011;18313;48.518;9.124;2023-06-22T11:29:47;9.85;;;5.00;;
31734;SDS011;18313;48.518;9.124;2023-06-22T11:32:16;11.45;;;4.28;;
31734;SDS011;18313;48.518;9.124;2023-06-22T11:34:43;12.65;;;4.68;;
31734;SDS011;18313;48.518;9.124;2023-06-22T11:37:10;13.60;;;4.72;;
31734;SDS011;18313;48.518;9.124;2023-06-22T11:39:37;12.57;;;5.25;;
31734;SDS011;18313;48.518;9.124;2023-06-22T11:42:09;16.13;;;5.03;;
31734;SDS011;18313;48.518;9.124;2023-06-22T11:44:36;9.73;;;5.43;;
31734;SDS011;18313;48.518;9.124;2023-06-22T11:47:03;11.15;;;4.80;;
31734;SDS011;18313;48.518;9.124;2023-06-22T11:49:31;11.60;;;4.35;;
31734;SDS011;18313;48.518;9.124;2023-06-22T11:51:58;9.43;;;5.30;;
31734;SDS011;18313;48.518;9.124;2023-06-22T11:54:25;16.10;;;5.60;;
31734;SDS011;18313;48.518;9.124;2023-06-22T11:56:52;14.23;;;5.18;;
31734;SDS011;18313;48.518;9.124;2023-06-22T11:59:19;12.90;;;4.95;;
31734;SDS011;18313;48.518;9.124;2023-06-22T12:01:48;13.38;;;5.90;;
31734;SDS011;18313;48.518;9.124;2023-06-22T12:04:17;14.73;;;5.20;;
31734;SDS011;18313;48.518;9.124;2023-06-22T12:06:44;16.23;;;4.80;;
31734;SDS011;18313;48.518;9.124;2023-06-22T12:09:12;12.18;;;4.90;;
31734;SDS011;18313;48.518;9.124;2023-06-22T12:11:40;9.88;;;4.45;;
31734;SDS011;18313;48.518;9.124;2023-06-22T12:14:07;15.10;;;4.75;;
31734;SDS011;18313;48.518;9.124;2023-06-22T12:16:34;11.60;;;4.65;;
31734;SDS011;18313;48.518;9.124;2023-06-22T12:19:01;11.25;;;4.78;;
31734;SDS011;18313;48.518;9.124;2023-06-22T12:21:28;12.43;;;4.50;;
31734;SDS011;18313;48.518;9.124;2023-06-22T12:23:55;10.85;;;5.15;;
31734;SDS011;18313;48.518;9.124;2023-06-22T12:26:22;10.88;;;5.10;;
31734;SDS011;18313;48.518;9.124;2023-06-22T12:28:49;12.07;;;4.63;;
31734;SDS011;18313;48.518;9.124;2023-06-22T12:31:16;11.45;;;4.65;;
31734;SDS011;18313;48.518;9.124;2023-06-22T12:33:44;11.35;;;4.68;;
31734;SDS011;18313;48.518;9.124;2023-06-22T12:36:11;10.70;;;4.13;;
31734;SDS011;18313;48.518;9.124;2023-06-22T12:38:38;11.43;;;4.47;;
31734;SDS011;18313;48.518;9.124;2023-06-22T12:41:05;12.95;;;5.15;;
31734;SDS011;18313;48.518;9.124;2023-06-22T12:43:32;11.80;;;5.03;;
31734;SDS011;18313;48.518;9.124;2023-06-22T12:45:59;13.45;;;4.65;;
31734;SDS011;18313;48.518;9.124;2023-06-22T12:48:26;11.52;;;4.47;;
31734;SDS011;18313;48.518;9.124;2023-06-22T12:50:54;14.35;;;4.60;;
31734;SDS011;18313;48.518;9.124;2023-06-22T12:53:21;9.43;;;4.90;;
31734;SDS011;18313;48.518;9.124;2023-06-22T12:55:50;8.93;;;4.32;;
31734;SDS011;18313;48.518;9.124;2023-06-22T12:58:17;13.40;;;4.90;;
31734;SDS011;18313;48.518;9.124;2023-06-22T13:00:44;16.30;;;4.90;;
31734;SDS011;18313;48.518;9.124;2023-06-22T13:03:11;9.85;;;4.63;;
31734;SDS011;18313;48.518;9.124;2023-06-22T13:05:39;10.38;;;4.63;;
31734;SDS011;18313;48.518;9.124;2023-06-22T13:08:06;15.15;;;5.20;;
31734;SDS011;18313;48.518;9.124;2023-06-22T13:10:38;10.90;;;4.10;;
31734;SDS011;18313;48.518;9.124;2023-06-22T13:13:05;11.77;;;4.32;;
31734;SDS011;18313;48.518;9.124;2023-06-22T13:15:32;11.07;;;4.38;;
31734;SDS011;18313;48.518;9.124;2023-06-22T13:18:00;15.45;;;5.00;;
31734;SDS011;18313;48.518;9.124;2023-06-22T13:20:28;12.30;;;4.40;;
31734;SDS011;18313;48.518;9.124;2023-06-22T13:22:55;15.45;;;4.72;;
31734;SDS011;18313;48.518;9.124;2023-06-22T13:25:23;14.68;;;5.03;;
31734;SDS011;18313;48.518;9.124;2023-06-22T13:27:53;11.57;;;4.30;;
31734;SDS011;18313;48.518;9.124;2023-06-22T13:30:20;10.82;;;4.60;;
31734;SDS011;18313;48.518;9.124;2023-06-22T13:32:47;8.57;;;4.53;;
31734;SDS011;18313;48.518;9.124;2023-06-22T13:35:14;14.05;;;4.75;;
31734;SDS011;18313;48.518;9.124;2023-06-22T13:37:42;12.60;;;4.72;;
31734;SDS011;18313;48.518;9.124;2023-06-22T13:40:09;10.43;;;4.75;;
31734;SDS011;18313;48.518;9.124;2023-06-22T13:42:36;14.52;;;4.72;;
31734;SDS011;18313;48.518;9.124;2023-06-22T13:45:03;9.07;;;4.55;;
31734;SDS011;18313;48.518;9.124;2023-06-22T13:47:31;11.40;;;4.60;;
31734;SDS011;18313;48.518;9.124;2023-06-22T13:49:58;8.82;;;4.28;;
31734;SDS011;18313;48.518;9.124;2023-06-22T13:52:25;14.10;;;4.70;;
31734;SDS011;18313;48.518;9.124;2023-06-22T13:54:52;12.38;;;4.65;;
31734;SDS011;18313;48.518;9.124;2023-06-22T13:57:20;14.48;;;4.80;;
31734;SDS011;18313;48.518;9.124;2023-06-22T13:59:47;11.75;;;4.70;;
31734;SDS011;18313;48.518;9.124;2023-06-22T14:02:14;9.27;;;4.55;;
31734;SDS011;18313;48.518;9.124;2023-06-22T14:04:42;16.20;;;4.70;;
31734;SDS011;18313;48.518;9.124;2023-06-22T14:07:09;12.77;;;4.55;;
31734;SDS011;18313;48.518;9.124;2023-06-22T14:09:36;11.68;;;4.80;;
31734;SDS011;18313;48.518;9.124;2023-06-22T14:12:06;14.07;;;4.72;;
31734;SDS011;18313;48.518;9.124;2023-06-22T14:14:34;14.45;;;4.72;;
31734;SDS011;18313;48.518;9.124;2023-06-22T14:17:01;11.35;;;5.30;;
31734;SDS011;18313;48.518;9.124;2023-06-22T14:19:28;12.40;;;5.20;;
31734;SDS011;18313;48.518;9.124;2023-06-22T14:21:55;11.88;;;4.47;;
31734;SDS011;18313;48.518;9.124;2023-06-22T14:24:23;12.02;;;4.65;;
31734;SDS011;18313;48.518;9.124;2023-06-22T14:26:54;15.30;;;4.68;;
31734;SDS011;18313;48.518;9.124;2023-06-22T14:29:22;10.18;;;4.85;;
31734;SDS011;18313;48.518;9.124;2023-06-22T14:31:49;11.45;;;4.82;;
31734;SDS011;18313;48.518;9.124;2023-06-22T14:34:16;14.85;;;4.65;;
31734;SDS011;18313;48.518;9.124;2023-06-22T14:36:43;9.38;;;4.65;;
31734;SDS011;18313;48.518;9.124;2023-06-22T14:39:11;10.00;;;4.22;;
31734;SDS011;18313;48.518;9.124;2023-06-22T14:41:38;12.15;;;4.90;;
31734;SDS011;18313;48.518;9.124;2023-06-22T14:44:04;9.95;;;4.22;;
31734;SDS011;18313;48.518;9.124;2023-06-22T14:46:31;13.98;;;4.78;;
31734;SDS011;18313;48.518;9.124;2023-06-22T14:48:59;14.57;;;5.32;;
31734;SDS011;18313;48.518;9.124;2023-06-22T14:51:26;14.15;;;5.15;;